Reply To: Tauwetterbesprechung vom 11.01. bis 13.01.2019

Home Forums Wetterturnierforum Tauwetterbesprechung vom 11.01. bis 13.01.2019 Reply To: Tauwetterbesprechung vom 11.01. bis 13.01.2019

#13245
Mammatuscloud
Moderator

Vielen Dank für tolle WB! Sehr angenehmen zu lesen und passend bebildert.

Kloten hatte heute morgen um 7:50 UTC noch leichten Schneefall im Metar, hat der Beobachter dann wahrscheinlich zum 12utc Termin vergessen.
Bitte nach tragen, Danke.

201901120750 METAR LSZH 120750Z 14001KT 8000 SCT012 BKN015 BKN018 M00/M01
Q1027 TEMPO 4500 -SN BKN012=
201901120720 METAR LSZH 120720Z VRB02KT 8000 SCT013 BKN018 M00/M01 Q1026
TEMPO 4500 -SN BKN012=